createdAt,value
2023-03-10T00:00:07.286Z,19.1
2023-03-10T00:05:08.965Z,20.5
2023-03-10T00:10:07.153Z,16.1
2023-03-10T00:15:06.579Z,17.2
2023-03-10T00:20:06.913Z,15.9
2023-03-10T00:25:06.216Z,18.6
2023-03-10T00:30:06.491Z,11.5
2023-03-10T00:35:06.709Z,14.7
2023-03-10T00:40:07.103Z,13.2
2023-03-10T00:45:06.377Z,18.1
2023-03-10T00:50:06.868Z,21.8
2023-03-10T00:55:06.308Z,18.1
2023-03-10T01:00:06.873Z,14.5
2023-03-10T01:05:06.766Z,16.9
2023-03-10T01:10:06.375Z,17.6
2023-03-10T01:15:06.745Z,15.2
2023-03-10T01:20:07.097Z,15.3
2023-03-10T01:25:06.635Z,13.8
2023-03-10T01:30:07.056Z,12.8
2023-03-10T01:35:06.396Z,11.2
2023-03-10T01:40:06.662Z,8.9
2023-03-10T01:45:07.059Z,8.9
2023-03-10T01:50:06.199Z,8
2023-03-10T01:55:06.403Z,6.7
2023-03-10T02:00:06.307Z,7.9
2023-03-10T02:05:06.532Z,13.3
2023-03-10T02:10:06.881Z,14.6
2023-03-10T02:15:06.173Z,12.6
2023-03-10T02:20:06.522Z,14.3
2023-03-10T02:25:06.927Z,13.8
2023-03-10T02:30:06.558Z,15.8
2023-03-10T02:35:06.387Z,9.8
2023-03-10T02:40:06.815Z,5.9
2023-03-10T02:45:06.473Z,6.9
2023-03-10T02:50:06.398Z,5.6
2023-03-10T02:55:06.293Z,6.3
2023-03-10T03:00:06.717Z,7.2
2023-03-10T03:05:06.427Z,7.6
2023-03-10T03:10:06.820Z,7
2023-03-10T03:15:06.049Z,7.8
2023-03-10T03:20:06.408Z,5.8
2023-03-10T03:25:06.107Z,10.4
2023-03-10T03:30:06.974Z,13.5
2023-03-10T03:35:06.297Z,12.7
2023-03-10T03:40:06.713Z,11.8
2023-03-10T03:45:06.264Z,6.6
2023-03-10T03:50:06.620Z,5.9
2023-03-10T03:55:06.946Z,3.8
2023-03-10T04:00:06.394Z,4.7
2023-03-10T04:05:06.564Z,8.6
2023-03-10T04:10:07.039Z,5.4
2023-03-10T04:15:06.347Z,7.1
2023-03-10T04:20:06.698Z,9.1
2023-03-10T04:25:07.076Z,8.2
2023-03-10T04:30:06.479Z,7.7
2023-03-10T04:35:06.824Z,7.6
2023-03-10T04:40:06.117Z,6.9
2023-03-10T04:45:06.761Z,8.3
2023-03-10T04:50:06.110Z,10
2023-03-10T04:55:06.467Z,14.5
2023-03-10T05:00:06.780Z,9.7
2023-03-10T05:05:06.836Z,10
2023-03-10T05:10:06.984Z,8.4
2023-03-10T05:15:06.312Z,9.2
2023-03-10T05:20:06.756Z,6.8
2023-03-10T05:25:07.080Z,7.8
2023-03-10T05:30:06.393Z,7.8
2023-03-10T05:35:06.846Z,13.6
2023-03-10T05:40:06.232Z,12.7
2023-03-10T05:45:06.587Z,12.5
2023-03-10T05:50:06.990Z,11.4
2023-03-10T05:55:06.277Z,15.4
2023-03-10T06:00:06.692Z,14.1
2023-03-10T06:05:06.948Z,16.7
2023-03-10T06:10:06.425Z,10.4
2023-03-10T06:15:06.701Z,9.5
2023-03-10T06:20:07.010Z,9.9
2023-03-10T06:25:06.438Z,7.9
2023-03-10T06:30:06.746Z,5.4
2023-03-10T06:35:06.148Z,5.9
2023-03-10T06:40:06.610Z,5.8
2023-03-10T06:45:07.010Z,6.8
2023-03-10T06:50:06.368Z,10.8
2023-03-10T06:55:06.871Z,12
2023-03-10T07:00:06.285Z,10.7
2023-03-10T07:05:06.368Z,11.7
2023-03-10T07:10:06.732Z,12.6
2023-03-10T07:15:07.126Z,25.3
2023-03-10T07:20:06.394Z,23.6
2023-03-10T07:25:06.619Z,15.2
2023-03-10T07:30:06.940Z,14.1
2023-03-10T07:35:06.267Z,17.5
2023-03-10T07:40:06.431Z,19.6
2023-03-10T07:45:06.791Z,18.2
2023-03-10T07:50:07.059Z,13.4
2023-03-10T07:55:06.329Z,13.4
2023-03-10T08:00:06.746Z,16.4
2023-03-10T08:05:06.913Z,17.6
2023-03-10T08:10:06.415Z,11.9
2023-03-10T08:15:06.836Z,8.8
2023-03-10T08:20:06.061Z,6.4
2023-03-10T08:25:06.406Z,3.8
2023-03-10T08:30:06.838Z,5.4
2023-03-10T08:35:06.269Z,3.8
2023-03-10T08:40:06.594Z,5.7
2023-03-10T08:45:06.984Z,4.1
2023-03-10T08:50:06.394Z,4
2023-03-10T08:55:06.744Z,3.4
2023-03-10T09:00:07.229Z,7.8
2023-03-10T09:05:06.173Z,7.3
2023-03-10T09:10:06.516Z,14.3
2023-03-10T09:15:06.742Z,18.8
2023-03-10T09:20:07.000Z,7.1
2023-03-10T09:25:06.338Z,7.2
2023-03-10T09:30:06.758Z,7.8
2023-03-10T09:35:06.099Z,5.7
2023-03-10T09:40:06.516Z,8.6
2023-03-10T09:45:06.810Z,8.6
2023-03-10T09:50:06.186Z,11.8
2023-03-10T09:55:06.073Z,10
2023-03-10T10:00:07.001Z,11.9
2023-03-10T10:05:06.149Z,15.4
2023-03-10T10:10:06.277Z,14.7
2023-03-10T10:15:06.872Z,20.4
2023-03-10T10:20:06.372Z,18.5
2023-03-10T10:25:07.068Z,16.6
2023-03-10T10:30:06.375Z,15.3
2023-03-10T10:35:06.653Z,13.4
2023-03-10T10:40:06.505Z,22.6
2023-03-10T10:45:06.323Z,32.3
2023-03-10T10:50:06.686Z,27.6
2023-03-10T10:55:06.208Z,19.7
2023-03-10T11:00:06.574Z,18.5
2023-03-10T11:05:06.746Z,21.7
2023-03-10T11:10:07.069Z,16.9
2023-03-10T11:15:06.422Z,14.6
2023-03-10T11:20:06.538Z,19.9
2023-03-10T11:25:06.768Z,15.4
2023-03-10T11:30:06.960Z,13.4
2023-03-10T11:35:06.271Z,13.1
2023-03-10T11:40:06.224Z,15.4
2023-03-10T11:45:06.600Z,16.9
2023-03-10T11:50:06.528Z,12.8
2023-03-10T11:55:06.856Z,9.3
2023-03-10T12:00:06.406Z,13.2
2023-03-10T12:05:06.685Z,22.8
2023-03-10T12:10:06.259Z,19.5
2023-03-10T12:15:06.619Z,16.8
2023-03-10T12:20:06.136Z,11.7
2023-03-10T12:25:06.416Z,11.7
2023-03-10T12:30:06.906Z,13.1
2023-03-10T12:35:06.623Z,5.9
2023-03-10T12:40:06.500Z,12.1
2023-03-10T12:45:06.548Z,9.9
2023-03-10T12:50:06.976Z,5
2023-03-10T12:55:06.555Z,7.6
2023-03-10T13:00:07.096Z,6.4
2023-03-10T13:05:06.920Z,6.1
2023-03-10T13:10:07.062Z,9.5
2023-03-10T13:15:06.445Z,9
2023-03-10T13:20:06.755Z,5.5
2023-03-10T13:25:06.372Z,6.8
2023-03-10T13:30:06.186Z,2.7
2023-03-10T13:35:06.477Z,3.4
2023-03-10T13:40:06.252Z,7.9
2023-03-10T13:45:06.397Z,5.4
2023-03-10T13:50:06.772Z,6.2
2023-03-10T13:55:06.200Z,6.9
2023-03-10T14:00:06.502Z,8.5
2023-03-10T14:05:06.943Z,10.1
2023-03-10T14:10:06.351Z,11.6
2023-03-10T14:15:06.693Z,9.8
2023-03-10T14:20:06.095Z,7.8
2023-03-10T14:25:06.490Z,9.9
2023-03-10T14:30:06.968Z,9.5
2023-03-10T14:35:06.316Z,12.2
2023-03-10T14:40:06.846Z,8.4
2023-03-10T14:45:06.949Z,6.8
2023-03-10T14:50:06.321Z,5.6
2023-03-10T14:55:06.710Z,5
2023-03-10T15:00:07.139Z,6.9
2023-03-10T15:05:06.187Z,6.8
2023-03-10T15:10:06.240Z,8.5
2023-03-10T15:15:06.501Z,3.9
2023-03-10T15:20:06.250Z,7.3
2023-03-10T15:25:06.399Z,6.6
2023-03-10T15:30:06.704Z,8.8
2023-03-10T15:35:06.986Z,9.5
2023-03-10T15:40:06.375Z,8
2023-03-10T15:45:06.527Z,6.5
2023-03-10T15:50:06.682Z,9.4
2023-03-10T15:55:06.965Z,10.2
2023-03-10T16:00:07.059Z,10.6
2023-03-10T16:05:06.204Z,11
2023-03-10T16:10:06.617Z,12.9
2023-03-10T16:15:06.900Z,13.8
2023-03-10T16:20:06.907Z,22.1
2023-03-10T16:25:06.226Z,46.5
2023-03-10T16:30:06.521Z,50.2
2023-03-10T16:35:06.792Z,47
2023-03-10T16:40:06.103Z,47.7
2023-03-10T16:45:06.381Z,36.1
2023-03-10T16:50:06.703Z,27.8
2023-03-10T16:55:07.074Z,33.7
2023-03-10T17:00:06.502Z,34.1
2023-03-10T17:05:06.519Z,28.3
2023-03-10T17:10:06.878Z,30.8
2023-03-10T17:15:06.989Z,33.4
2023-03-10T17:20:06.309Z,43.9
2023-03-10T17:30:06.977Z,78
2023-03-10T17:35:06.308Z,72.2
2023-03-10T17:40:06.998Z,72.9
2023-03-10T17:45:06.291Z,71.3
2023-03-10T17:50:06.669Z,66.8
2023-03-10T17:55:07.026Z,72.7
2023-03-10T18:00:06.518Z,75
2023-03-10T18:05:06.698Z,68.9
2023-03-10T18:10:07.029Z,69.4
2023-03-10T18:15:06.284Z,70
2023-03-10T18:20:06.744Z,83.3
2023-03-10T18:25:06.156Z,91.1
2023-03-10T18:30:06.481Z,83.4
2023-03-10T18:35:06.855Z,118.2
2023-03-10T18:40:06.475Z,136.7
2023-03-10T18:45:06.733Z,103.9
2023-03-10T18:50:07.017Z,91.8
2023-03-10T18:55:06.288Z,78.5
2023-03-10T19:00:06.699Z,73.3
2023-03-10T19:05:06.893Z,80.5
2023-03-10T19:10:06.432Z,100.4
2023-03-10T19:15:06.799Z,99.9
2023-03-10T19:20:06.920Z,92.8
2023-03-10T19:25:06.319Z,95.6
2023-03-10T19:30:06.726Z,105.4
2023-03-10T19:35:06.192Z,109.6
2023-03-10T19:40:06.634Z,119.4
2023-03-10T19:45:06.890Z,89.9
2023-03-10T19:50:06.219Z,103
2023-03-10T19:55:06.554Z,65.4
2023-03-10T20:00:06.964Z,38.6
2023-03-10T20:05:06.180Z,15.3
2023-03-10T20:10:06.621Z,12.8
2023-03-10T20:15:06.969Z,9.7
2023-03-10T20:20:06.355Z,5.1
2023-03-10T20:25:06.738Z,7.8
2023-03-10T20:30:07.039Z,8.1
2023-03-10T20:35:06.401Z,9.9
2023-03-10T20:40:06.810Z,12.9
2023-03-10T20:45:07.004Z,10
2023-03-10T20:50:06.391Z,7
2023-03-10T20:55:06.684Z,4.3
2023-03-10T21:00:07.047Z,5.1
2023-03-10T21:05:06.081Z,14.8
2023-03-10T21:10:06.507Z,4
2023-03-10T21:15:06.794Z,4.9
2023-03-10T21:20:06.197Z,6.7
2023-03-10T21:25:06.444Z,7.6
2023-03-10T21:30:06.729Z,8.6
2023-03-10T21:35:07.067Z,11
2023-03-10T21:40:06.374Z,17
2023-03-10T21:45:06.765Z,8.1
2023-03-10T21:50:06.163Z,5.7
2023-03-10T21:55:06.408Z,3
2023-03-10T22:00:06.801Z,3.5
2023-03-10T22:05:06.920Z,5.2
2023-03-10T22:10:06.459Z,4.9
2023-03-10T22:15:06.787Z,2.6
2023-03-10T22:20:06.149Z,3.8
2023-03-10T22:25:06.553Z,4.5
2023-03-10T22:30:06.949Z,6.2
2023-03-10T22:35:06.286Z,13
2023-03-10T22:40:06.820Z,9.6
2023-03-10T22:45:06.122Z,14
2023-03-10T22:50:06.340Z,16.4
2023-03-10T22:55:07.077Z,16.9
2023-03-10T23:00:06.546Z,13.2
2023-03-10T23:05:06.608Z,14.6
2023-03-10T23:10:07.035Z,12.5
2023-03-10T23:15:06.427Z,12.3
2023-03-10T23:20:06.241Z,9.4
2023-03-10T23:25:06.917Z,7
2023-03-10T23:30:06.347Z,2.4
2023-03-10T23:35:06.777Z,6.6
2023-03-10T23:40:07.079Z,7.8
2023-03-10T23:45:06.350Z,7.3
2023-03-10T23:50:06.867Z,7.8
2023-03-10T23:55:06.419Z,5.2
